Time;durP1;ratioP1;P1;durP2;ratioP2;P2;SDS_P1;SDS_P2;PMS_P1;PMS_P2;Temp;Humidity;BMP_temperature;BMP_pressure;BME280_temperature;BME280_humidity;BME280_pressure;Samples;Min_cycle;Max_cycle;Signal;HPM_P1;HPM_P2
2023/08/12 00:01:15;;;;;;;8.63;4.63;;;;;;;;;;5044349;28;20041;-68
2023/08/12 00:04:00;;;;;;;6.55;3.63;;;;;;;;;;5026704;28;20068;-71
2023/08/12 00:06:45;;;;;;;13.40;4.57;;;;;;;;;;5034485;28;20022;-73
2023/08/12 00:09:31;;;;;;;10.23;4.75;;;;;;;;;;5027471;28;20553;-72
2023/08/12 00:12:16;;;;;;;9.80;4.13;;;;;;;;;;5022704;28;20017;-72
2023/08/12 00:15:02;;;;;;;7.38;4.00;;;;;;;;;;5031837;28;20068;-74
2023/08/12 00:17:47;;;;;;;6.40;4.35;;;;;;;;;;5029208;28;20033;-73
2023/08/12 00:20:33;;;;;;;8.75;4.90;;;;;;;;;;5026160;28;20411;-72
2023/08/12 00:23:18;;;;;;;6.60;4.35;;;;;;;;;;5022140;28;20029;-69
2023/08/12 00:26:03;;;;;;;7.97;4.40;;;;;;;;;;5028893;28;20033;-82
2023/08/12 00:28:48;;;;;;;7.32;5.18;;;;;;;;;;5025551;28;20029;-81
2023/08/12 00:31:34;;;;;;;7.15;4.10;;;;;;;;;;5024522;28;20475;-81
2023/08/12 00:34:19;;;;;;;6.95;4.32;;;;;;;;;;5027211;28;20029;-81
2023/08/12 00:37:04;;;;;;;21.10;5.20;;;;;;;;;;5031848;28;20032;-80
2023/08/12 00:39:49;;;;;;;8.30;4.18;;;;;;;;;;5023877;28;20503;-81
2023/08/12 00:42:35;;;;;;;7.63;4.07;;;;;;;;;;5022910;28;20029;-76
2023/08/12 00:45:20;;;;;;;6.85;4.00;;;;;;;;;;5024552;28;20064;-68
2023/08/12 00:48:06;;;;;;;11.07;4.57;;;;;;;;;;5029083;28;20124;-67
2023/08/12 00:50:52;;;;;;;6.85;4.13;;;;;;;;;;5021452;28;20073;-68
2023/08/12 00:53:37;;;;;;;8.52;4.28;;;;;;;;;;5025211;28;20029;-68
2023/08/12 00:56:22;;;;;;;5.35;3.65;;;;;;;;;;5026703;28;20096;-68
2023/08/12 00:59:11;;;;;;;8.85;5.50;;;;;;;;;;5025926;28;20128;-73
2023/08/12 01:01:56;;;;;;;6.80;4.22;;;;;;;;;;5031442;28;20038;-73
2023/08/12 01:04:41;;;;;;;7.28;3.90;;;;;;;;;;5024309;28;20068;-73
2023/08/12 01:07:27;;;;;;;7.05;3.92;;;;;;;;;;5030819;28;20033;-72
2023/08/12 01:10:15;;;;;;;7.68;4.10;;;;;;;;;;5019518;28;20041;-72
2023/08/12 01:13:08;;;;;;;5.97;4.30;;;;;;;;;;5022296;28;20420;-74
2023/08/12 01:15:55;;;;;;;5.93;3.85;;;;;;;;;;5038420;28;20129;-72
2023/08/12 01:18:41;;;;;;;9.30;5.88;;;;;;;;;;5026230;28;20137;-71
2023/08/12 01:21:29;;;;;;;8.20;4.63;;;;;;;;;;5025643;28;20080;-78
2023/08/12 01:24:14;;;;;;;6.90;3.70;;;;;;;;;;5017581;28;20040;-77
2023/08/12 01:26:59;;;;;;;7.50;4.10;;;;;;;;;;5014121;28;20032;-80
2023/08/12 01:29:46;;;;;;;7.18;3.70;;;;;;;;;;5027717;28;20029;-80
2023/08/12 01:32:31;;;;;;;5.07;3.70;;;;;;;;;;5030509;28;20033;-78
2023/08/12 01:35:19;;;;;;;6.68;4.05;;;;;;;;;;5025610;28;20031;-70
2023/08/12 01:38:05;;;;;;;6.93;4.10;;;;;;;;;;5011160;28;20021;-70
2023/08/12 01:40:52;;;;;;;10.63;4.07;;;;;;;;;;5027838;28;20037;-71
2023/08/12 01:43:37;;;;;;;9.25;4.57;;;;;;;;;;5028249;28;20048;-72
2023/08/12 01:46:23;;;;;;;5.47;3.90;;;;;;;;;;5027551;28;20086;-71
2023/08/12 01:49:08;;;;;;;6.30;4.30;;;;;;;;;;5031595;28;20025;-71
2023/08/12 01:51:54;;;;;;;7.13;4.35;;;;;;;;;;5025610;28;20033;-71
2023/08/12 01:54:39;;;;;;;8.55;3.88;;;;;;;;;;5026585;28;20511;-77
2023/08/12 01:57:24;;;;;;;6.25;3.78;;;;;;;;;;5033499;28;20037;-71
2023/08/12 02:00:09;;;;;;;8.80;3.70;;;;;;;;;;5028755;28;20090;-73
2023/08/12 02:02:55;;;;;;;10.23;4.55;;;;;;;;;;5038823;28;20028;-74
2023/08/12 02:05:41;;;;;;;7.10;4.40;;;;;;;;;;5023950;28;20029;-74
2023/08/12 02:08:26;;;;;;;5.45;3.58;;;;;;;;;;5028205;28;20468;-71
2023/08/12 02:11:11;;;;;;;6.38;4.47;;;;;;;;;;5030474;28;20029;-72
2023/08/12 02:13:56;;;;;;;5.80;3.78;;;;;;;;;;5026882;28;20033;-72
2023/08/12 02:16:42;;;;;;;7.10;4.03;;;;;;;;;;5039621;28;20060;-72
2023/08/12 02:19:27;;;;;;;9.05;4.20;;;;;;;;;;5026967;28;20095;-73
2023/08/12 02:22:12;;;;;;;7.85;4.18;;;;;;;;;;5032115;28;20038;-72
2023/08/12 02:24:57;;;;;;;6.13;4.00;;;;;;;;;;5032490;28;20037;-73
2023/08/12 02:27:42;;;;;;;5.35;4.03;;;;;;;;;;5032547;28;20021;-71
2023/08/12 02:30:29;;;;;;;7.20;3.30;;;;;;;;;;5027599;28;20036;-73
2023/08/12 02:33:14;;;;;;;7.43;4.30;;;;;;;;;;5030360;28;20543;-71
2023/08/12 02:35:59;;;;;;;6.70;4.53;;;;;;;;;;5029667;28;20045;-82
2023/08/12 02:38:44;;;;;;;6.13;4.10;;;;;;;;;;5025143;28;20057;-83
2023/08/12 02:41:30;;;;;;;5.90;3.83;;;;;;;;;;5037852;28;20029;-81
2023/08/12 02:44:15;;;;;;;7.47;4.70;;;;;;;;;;5026338;28;20036;-82
2023/08/12 02:47:00;;;;;;;7.90;4.68;;;;;;;;;;5030266;28;20072;-83
2023/08/12 02:49:46;;;;;;;5.45;3.90;;;;;;;;;;5031992;28;20389;-67
2023/08/12 02:52:31;;;;;;;9.10;3.97;;;;;;;;;;5029170;28;20446;-72
2023/08/12 02:55:16;;;;;;;6.45;3.67;;;;;;;;;;5025554;28;20050;-73
2023/08/12 02:58:01;;;;;;;6.63;4.05;;;;;;;;;;5027918;28;20022;-73
2023/08/12 03:00:47;;;;;;;5.93;4.07;;;;;;;;;;5026414;28;20412;-73
2023/08/12 03:03:32;;;;;;;7.40;4.07;;;;;;;;;;5026684;28;20033;-74
2023/08/12 03:06:17;;;;;;;5.60;4.00;;;;;;;;;;5032072;28;20028;-73
2023/08/12 03:09:02;;;;;;;11.05;3.83;;;;;;;;;;5036510;28;20037;-68
2023/08/12 03:11:48;;;;;;;6.43;4.10;;;;;;;;;;5027395;28;20029;-80
2023/08/12 03:14:33;;;;;;;6.53;3.80;;;;;;;;;;5026370;28;20044;-80
2023/08/12 03:17:18;;;;;;;5.57;3.80;;;;;;;;;;5029767;28;20476;-80
2023/08/12 03:20:05;;;;;;;7.38;3.83;;;;;;;;;;5030713;28;20068;-80
2023/08/12 03:22:50;;;;;;;6.50;3.88;;;;;;;;;;5031471;28;20029;-81
2023/08/12 03:25:36;;;;;;;6.43;4.13;;;;;;;;;;5028503;28;20464;-75
2023/08/12 03:28:21;;;;;;;5.40;3.83;;;;;;;;;;5025047;28;20379;-67
2023/08/12 03:31:06;;;;;;;5.25;4.00;;;;;;;;;;5027040;28;20026;-71
2023/08/12 03:33:51;;;;;;;6.05;3.80;;;;;;;;;;5034942;28;20032;-70
2023/08/12 03:36:36;;;;;;;8.57;3.75;;;;;;;;;;5022695;28;20034;-70
2023/08/12 03:39:22;;;;;;;7.45;3.92;;;;;;;;;;5024919;28;20415;-70
2023/08/12 03:42:07;;;;;;;6.82;3.83;;;;;;;;;;5028356;28;20029;-71
2023/08/12 03:44:52;;;;;;;6.88;4.00;;;;;;;;;;5030414;28;20084;-69
2023/08/12 03:47:37;;;;;;;7.45;3.90;;;;;;;;;;5026821;28;20222;-80
2023/08/12 03:50:23;;;;;;;9.30;4.63;;;;;;;;;;5024781;28;20117;-81
2023/08/12 03:53:08;;;;;;;5.50;3.92;;;;;;;;;;5033188;28;20078;-80
2023/08/12 03:55:54;;;;;;;7.18;4.35;;;;;;;;;;5026368;28;20049;-81
2023/08/12 03:58:39;;;;;;;9.55;4.32;;;;;;;;;;5029301;28;20105;-82
2023/08/12 04:01:24;;;;;;;7.03;4.03;;;;;;;;;;5025543;28;20049;-80
2023/08/12 04:04:09;;;;;;;6.45;4.38;;;;;;;;;;5020009;28;20041;-68
2023/08/12 04:06:54;;;;;;;11.45;4.47;;;;;;;;;;5018964;28;21472;-68
2023/08/12 04:09:40;;;;;;;7.63;3.85;;;;;;;;;;5029989;28;20041;-70
2023/08/12 04:12:25;;;;;;;8.50;4.22;;;;;;;;;;5018563;28;20032;-68
2023/08/12 04:15:10;;;;;;;6.25;3.33;;;;;;;;;;5024576;28;20037;-68
2023/08/12 04:17:56;;;;;;;5.45;3.80;;;;;;;;;;5018406;28;20022;-68
2023/08/12 04:20:41;;;;;;;6.32;3.67;;;;;;;;;;5020283;28;20056;-73
2023/08/12 04:23:26;;;;;;;11.35;3.90;;;;;;;;;;5028727;28;20080;-71
2023/08/12 04:26:11;;;;;;;5.28;3.50;;;;;;;;;;5021180;28;20557;-71
2023/08/12 04:28:57;;;;;;;8.23;4.45;;;;;;;;;;5025969;28;20079;-71
2023/08/12 04:31:42;;;;;;;6.50;3.88;;;;;;;;;;5029110;28;20041;-71
2023/08/12 04:34:27;;;;;;;7.03;4.22;;;;;;;;;;5025498;28;20063;-70
2023/08/12 04:37:12;;;;;;;6.95;3.90;;;;;;;;;;5030080;28;20037;-71
2023/08/12 04:39:58;;;;;;;5.03;3.28;;;;;;;;;;5035960;28;20083;-78
2023/08/12 04:42:43;;;;;;;5.25;4.00;;;;;;;;;;5027343;28;20048;-80
2023/08/12 04:45:28;;;;;;;5.65;3.58;;;;;;;;;;5023995;28;20108;-80
2023/08/12 04:48:14;;;;;;;6.22;3.45;;;;;;;;;;5016291;28;20057;-81
2023/08/12 04:51:01;;;;;;;6.43;3.95;;;;;;;;;;5027452;28;20076;-82
2023/08/12 04:53:46;;;;;;;8.20;4.32;;;;;;;;;;5022896;28;20121;-80
2023/08/12 04:56:31;;;;;;;4.95;3.30;;;;;;;;;;5028314;28;20159;-80
2023/08/12 04:59:17;;;;;;;7.35;3.95;;;;;;;;;;5025983;28;20472;-81
2023/08/12 05:02:02;;;;;;;6.28;3.88;;;;;;;;;;5040222;28;20557;-78
2023/08/12 05:04:48;;;;;;;5.30;3.80;;;;;;;;;;5026031;28;20104;-77
2023/08/12 05:07:34;;;;;;;5.18;3.45;;;;;;;;;;5024479;28;20128;-77
2023/08/12 05:10:19;;;;;;;6.53;4.10;;;;;;;;;;5032016;28;20072;-78
2023/08/12 05:13:04;;;;;;;6.75;3.70;;;;;;;;;;5037696;28;20083;-77
2023/08/12 05:15:49;;;;;;;6.15;3.60;;;;;;;;;;5024269;28;20064;-77
2023/08/12 05:18:34;;;;;;;7.03;3.90;;;;;;;;;;5024669;28;20124;-72
2023/08/12 05:21:20;;;;;;;7.63;4.05;;;;;;;;;;5027264;28;20036;-74
2023/08/12 05:24:06;;;;;;;7.40;4.03;;;;;;;;;;5035637;28;20379;-71
2023/08/12 05:26:51;;;;;;;9.02;4.38;;;;;;;;;;5033696;28;20395;-72
2023/08/12 05:29:36;;;;;;;7.40;4.68;;;;;;;;;;5028391;28;20128;-71
2023/08/12 05:32:21;;;;;;;5.40;3.85;;;;;;;;;;5029527;28;20107;-71
2023/08/12 05:35:07;;;;;;;7.78;3.67;;;;;;;;;;5036727;28;20459;-83
2023/08/12 05:37:52;;;;;;;5.43;3.90;;;;;;;;;;5045090;28;20032;-73
2023/08/12 05:40:37;;;;;;;7.35;3.92;;;;;;;;;;5033533;28;20037;-74
2023/08/12 05:43:22;;;;;;;5.65;3.92;;;;;;;;;;5029446;28;20132;-73
2023/08/12 05:46:08;;;;;;;7.95;4.30;;;;;;;;;;5023475;28;20075;-74
2023/08/12 05:48:53;;;;;;;7.93;4.30;;;;;;;;;;5026301;28;20083;-73
2023/08/12 05:51:38;;;;;;;9.25;4.90;;;;;;;;;;5028463;28;20040;-72
2023/08/12 05:54:23;;;;;;;6.60;4.10;;;;;;;;;;5029557;28;20033;-81
2023/08/12 05:57:08;;;;;;;6.28;4.15;;;;;;;;;;5035719;28;20044;-74
2023/08/12 05:59:54;;;;;;;5.53;4.10;;;;;;;;;;5027113;28;20400;-73
2023/08/12 06:02:39;;;;;;;8.75;5.20;;;;;;;;;;5027559;28;20405;-74
2023/08/12 06:05:24;;;;;;;5.55;3.83;;;;;;;;;;5034693;28;20260;-73
2023/08/12 06:08:09;;;;;;;5.43;4.18;;;;;;;;;;5033318;28;20025;-74
2023/08/12 06:10:55;;;;;;;9.32;4.53;;;;;;;;;;5021836;28;20087;-75
2023/08/12 06:13:40;;;;;;;9.20;4.65;;;;;;;;;;5032492;28;20102;-74
2023/08/12 06:16:25;;;;;;;10.60;3.97;;;;;;;;;;5036120;28;20041;-68
2023/08/12 06:19:10;;;;;;;7.78;4.90;;;;;;;;;;5032394;28;20068;-69
2023/08/12 06:21:55;;;;;;;7.53;4.13;;;;;;;;;;5026506;28;20029;-69
2023/08/12 06:24:41;;;;;;;4.93;3.50;;;;;;;;;;5034982;28;20033;-71
2023/08/12 06:27:26;;;;;;;5.68;4.07;;;;;;;;;;5029573;28;20579;-71
2023/08/12 06:30:12;;;;;;;7.43;4.45;;;;;;;;;;5034123;28;20499;-73
2023/08/12 06:32:57;;;;;;;7.43;4.57;;;;;;;;;;5029344;28;20025;-74
2023/08/12 06:35:42;;;;;;;7.13;4.80;;;;;;;;;;5028210;28;20030;-74
2023/08/12 06:38:27;;;;;;;7.10;4.35;;;;;;;;;;5024975;28;20029;-75
2023/08/12 06:41:13;;;;;;;6.97;4.57;;;;;;;;;;5034559;28;20091;-76
2023/08/12 06:43:58;;;;;;;8.55;4.60;;;;;;;;;;5035445;28;20061;-76
2023/08/12 06:46:43;;;;;;;8.35;5.00;;;;;;;;;;5025706;28;20142;-74
2023/08/12 06:49:28;;;;;;;7.00;4.53;;;;;;;;;;5032042;28;20472;-83
2023/08/12 06:52:14;;;;;;;7.05;4.57;;;;;;;;;;5023834;28;20692;-81
2023/08/12 06:54:59;;;;;;;8.23;4.55;;;;;;;;;;5020849;28;20033;-76
2023/08/12 06:57:45;;;;;;;7.78;4.45;;;;;;;;;;5026365;28;20060;-76
2023/08/12 07:00:30;;;;;;;6.55;4.43;;;;;;;;;;5018182;28;20033;-75
2023/08/12 07:03:15;;;;;;;7.47;4.22;;;;;;;;;;5015938;28;20033;-76
2023/08/12 07:06:00;;;;;;;9.30;4.97;;;;;;;;;;5022064;28;20029;-75
2023/08/12 07:08:46;;;;;;;8.30;5.05;;;;;;;;;;5031217;28;20083;-70
2023/08/12 07:11:31;;;;;;;8.25;4.55;;;;;;;;;;5025122;28;20590;-75
2023/08/12 07:14:16;;;;;;;5.25;4.20;;;;;;;;;;5027326;28;20092;-76
2023/08/12 07:17:01;;;;;;;9.05;4.70;;;;;;;;;;5023303;28;20491;-75
2023/08/12 07:19:47;;;;;;;7.75;5.03;;;;;;;;;;5028193;28;20106;-76
2023/08/12 07:22:32;;;;;;;10.25;4.82;;;;;;;;;;5029632;28;20103;-77
2023/08/12 07:25:17;;;;;;;5.72;3.90;;;;;;;;;;5027651;28;20059;-70
2023/08/12 07:28:03;;;;;;;8.35;4.28;;;;;;;;;;5018077;28;20383;-71
2023/08/12 07:30:49;;;;;;;9.65;4.20;;;;;;;;;;5024136;28;20068;-70
2023/08/12 07:33:34;;;;;;;5.45;4.25;;;;;;;;;;5014152;28;20460;-70
2023/08/12 07:36:19;;;;;;;6.53;4.10;;;;;;;;;;5024896;28;20116;-70
2023/08/12 07:39:05;;;;;;;7.38;4.20;;;;;;;;;;5017723;28;20041;-72
2023/08/12 07:41:50;;;;;;;8.05;4.40;;;;;;;;;;5021337;28;20503;-70
2023/08/12 07:44:35;;;;;;;5.70;4.07;;;;;;;;;;5018490;28;20116;-69
2023/08/12 07:47:20;;;;;;;7.03;4.38;;;;;;;;;;5028379;28;20033;-80
2023/08/12 07:50:06;;;;;;;9.65;3.97;;;;;;;;;;5024392;28;20021;-79
2023/08/12 07:52:51;;;;;;;7.15;4.32;;;;;;;;;;5018427;28;20432;-75
2023/08/12 07:55:37;;;;;;;9.00;4.20;;;;;;;;;;5023465;28;20454;-80
2023/08/12 07:58:23;;;;;;;7.68;3.95;;;;;;;;;;5026601;28;20155;-79
2023/08/12 08:01:09;;;;;;;6.65;3.67;;;;;;;;;;5024003;28;20587;-78
2023/08/12 08:03:54;;;;;;;5.32;3.28;;;;;;;;;;5021218;28;20033;-73
2023/08/12 08:06:39;;;;;;;5.70;2.95;;;;;;;;;;5038533;28;20033;-70
2023/08/12 08:09:25;;;;;;;5.00;3.20;;;;;;;;;;5033050;28;20036;-77
2023/08/12 08:12:10;;;;;;;12.60;5.72;;;;;;;;;;5031390;28;20029;-70
2023/08/12 08:14:55;;;;;;;23.50;9.15;;;;;;;;;;5025340;28;20030;-69
2023/08/12 08:17:40;;;;;;;13.05;5.30;;;;;;;;;;5028376;28;20468;-66
2023/08/12 08:20:26;;;;;;;13.02;5.50;;;;;;;;;;5034321;28;20454;-72
2023/08/12 08:23:11;;;;;;;8.27;4.78;;;;;;;;;;5023922;28;20076;-66
2023/08/12 08:25:56;;;;;;;7.45;4.97;;;;;;;;;;5019675;28;20442;-72
2023/08/12 08:28:41;;;;;;;9.32;4.43;;;;;;;;;;5040988;28;20036;-69
2023/08/12 08:31:26;;;;;;;8.88;4.30;;;;;;;;;;5034041;28;20033;-68
2023/08/12 08:34:12;;;;;;;11.23;4.05;;;;;;;;;;5032814;28;20159;-73
2023/08/12 08:36:57;;;;;;;10.98;5.35;;;;;;;;;;5025220;28;20036;-71
2023/08/12 08:39:42;;;;;;;8.35;4.53;;;;;;;;;;5030073;28;20518;-67
2023/08/12 08:42:27;;;;;;;8.77;3.97;;;;;;;;;;5038465;28;20056;-69
2023/08/12 08:45:13;;;;;;;7.22;3.83;;;;;;;;;;5030784;28;20055;-68
2023/08/12 08:48:00;;;;;;;6.50;3.80;;;;;;;;;;5023214;28;20059;-70
2023/08/12 08:50:45;;;;;;;5.75;3.53;;;;;;;;;;5030924;28;20112;-68
2023/08/12 08:53:31;;;;;;;5.68;3.60;;;;;;;;;;5031285;28;20036;-69
2023/08/12 08:56:17;;;;;;;5.35;3.35;;;;;;;;;;5026304;28;20164;-68
2023/08/12 08:59:02;;;;;;;5.53;3.78;;;;;;;;;;5028097;28;20425;-70
2023/08/12 09:01:48;;;;;;;7.28;3.65;;;;;;;;;;5033434;28;20030;-66
2023/08/12 09:04:34;;;;;;;5.28;3.65;;;;;;;;;;5026859;28;20033;-69
2023/08/12 09:07:20;;;;;;;8.40;3.97;;;;;;;;;;5025597;28;20065;-67
2023/08/12 09:10:05;;;;;;;4.20;3.10;;;;;;;;;;5025800;28;20420;-66
2023/08/12 09:12:52;;;;;;;7.38;3.40;;;;;;;;;;5026989;28;20041;-67
2023/08/12 09:15:37;;;;;;;7.55;3.53;;;;;;;;;;5015974;28;20029;-67
2023/08/12 09:18:24;;;;;;;5.50;2.90;;;;;;;;;;5025054;28;20451;-68
2023/08/12 09:21:09;;;;;;;6.30;2.80;;;;;;;;;;5018733;28;20256;-67
2023/08/12 09:24:08;;;;;;;7.22;2.67;;;;;;;;;;5025568;28;20075;-67
2023/08/12 09:26:54;;;;;;;6.47;3.05;;;;;;;;;;5025356;28;20428;-67
2023/08/12 09:29:39;;;;;;;3.83;2.78;;;;;;;;;;5018362;28;20432;-67
2023/08/12 09:32:24;;;;;;;5.78;3.33;;;;;;;;;;5027460;28;20045;-65
2023/08/12 09:35:16;;;;;;;7.20;3.45;;;;;;;;;;5024508;28;20044;-66
2023/08/12 09:38:05;;;;;;;4.78;2.80;;;;;;;;;;5023323;28;20483;-71
2023/08/12 09:40:52;;;;;;;4.85;2.80;;;;;;;;;;5020063;28;20048;-70
2023/08/12 09:43:43;;;;;;;3.88;2.65;;;;;;;;;;5023956;28;20033;-70
2023/08/12 09:46:28;;;;;;;3.83;2.70;;;;;;;;;;5029189;28;20025;-71
2023/08/12 09:49:13;;;;;;;4.22;2.78;;;;;;;;;;5036103;28;20017;-69
2023/08/12 09:51:59;;;;;;;3.60;2.25;;;;;;;;;;5035148;28;20033;-69
2023/08/12 09:54:44;;;;;;;5.10;2.45;;;;;;;;;;5028837;28;20063;-74
2023/08/12 09:57:31;;;;;;;62.17;47.13;;;;;;;;;;5027332;28;20492;-65
2023/08/12 10:00:18;;;;;;;8.63;4.00;;;;;;;;;;5028301;28;20041;-65
2023/08/12 10:03:04;;;;;;;14.07;10.35;;;;;;;;;;5028209;28;20040;-66
2023/08/12 10:05:49;;;;;;;10.07;6.82;;;;;;;;;;5034855;28;20040;-67
2023/08/12 10:08:35;;;;;;;6.88;3.50;;;;;;;;;;5029632;28;20033;-65
2023/08/12 10:11:20;;;;;;;6.35;3.20;;;;;;;;;;5032123;28;20033;-69
2023/08/12 10:14:05;;;;;;;5.80;3.50;;;;;;;;;;5026660;28;20028;-66
2023/08/12 10:16:51;;;;;;;5.22;3.53;;;;;;;;;;5028409;28;20055;-70
2023/08/12 10:19:37;;;;;;;8.45;4.63;;;;;;;;;;5033505;28;20036;-69
2023/08/12 10:22:23;;;;;;;8.75;4.55;;;;;;;;;;5026807;28;20034;-66
2023/08/12 10:25:09;;;;;;;5.13;3.47;;;;;;;;;;5023071;28;20092;-67
2023/08/12 10:27:54;;;;;;;6.13;3.40;;;;;;;;;;5028467;28;20597;-67
2023/08/12 10:30:41;;;;;;;4.03;2.95;;;;;;;;;;5025413;28;20030;-75
2023/08/12 10:33:27;;;;;;;3.88;3.22;;;;;;;;;;5033719;28;20032;-67
2023/08/12 10:36:12;;;;;;;4.28;3.13;;;;;;;;;;5027586;28;20049;-67
2023/08/12 10:38:57;;;;;;;4.68;3.03;;;;;;;;;;5027462;28;20071;-66
2023/08/12 10:41:50;;;;;;;6.65;3.45;;;;;;;;;;5018881;28;20394;-64
2023/08/12 10:44:54;;;;;;;5.45;2.90;;;;;;;;;;5036566;28;20495;-64
2023/08/12 10:47:40;;;;;;;4.85;3.28;;;;;;;;;;5029781;28;20103;-68
2023/08/12 10:50:25;;;;;;;5.15;2.75;;;;;;;;;;5017592;28;20056;-68
2023/08/12 10:53:32;;;;;;;4.63;3.08;;;;;;;;;;5027100;28;20029;-73
2023/08/12 10:56:18;;;;;;;5.10;2.75;;;;;;;;;;5027626;28;20520;-68
2023/08/12 10:59:04;;;;;;;5.32;2.53;;;;;;;;;;5032041;28;20388;-72
2023/08/12 11:01:52;;;;;;;5.22;3.10;;;;;;;;;;5022867;28;20091;-71
2023/08/12 11:04:38;;;;;;;5.28;2.45;;;;;;;;;;5021935;28;20061;-71
2023/08/12 11:07:43;;;;;;;7.22;3.08;;;;;;;;;;5025193;28;20076;-69
2023/08/12 11:10:30;;;;;;;6.35;3.25;;;;;;;;;;5029374;28;20036;-67
2023/08/12 11:13:15;;;;;;;3.58;2.60;;;;;;;;;;5027248;28;20059;-66
2023/08/12 11:16:07;;;;;;;7.55;2.65;;;;;;;;;;5013383;28;20427;-69
2023/08/12 11:18:53;;;;;;;4.50;3.10;;;;;;;;;;5023077;28;20037;-70
2023/08/12 11:21:39;;;;;;;4.57;2.38;;;;;;;;;;5027183;28;20087;-70
2023/08/12 11:24:25;;;;;;;5.32;2.55;;;;;;;;;;5023576;28;20056;-69
2023/08/12 11:27:13;;;;;;;4.20;2.63;;;;;;;;;;5027722;28;20516;-68
2023/08/12 11:29:58;;;;;;;3.57;2.37;;;;;;;;;;5027624;28;20460;-68
2023/08/12 11:32:44;;;;;;;4.10;2.72;;;;;;;;;;5029257;28;20044;-67
2023/08/12 11:35:29;;;;;;;3.25;2.60;;;;;;;;;;5014027;28;20022;-69
2023/08/12 11:38:14;;;;;;;4.97;2.55;;;;;;;;;;5022437;28;20029;-68
2023/08/12 11:41:00;;;;;;;5.45;2.60;;;;;;;;;;5016497;28;20048;-69
2023/08/12 11:43:45;;;;;;;5.82;2.95;;;;;;;;;;5023229;28;20041;-67
2023/08/12 11:46:32;;;;;;;6.65;2.70;;;;;;;;;;5023311;28;20121;-65
2023/08/12 11:49:18;;;;;;;4.30;3.05;;;;;;;;;;5025009;28;20404;-70
2023/08/12 11:52:03;;;;;;;4.60;2.90;;;;;;;;;;5028768;28;20060;-67
2023/08/12 11:54:49;;;;;;;4.55;3.10;;;;;;;;;;5034704;28;20419;-69
2023/08/12 11:57:35;;;;;;;6.05;3.25;;;;;;;;;;5022562;28;20064;-66
2023/08/12 12:00:21;;;;;;;3.95;2.67;;;;;;;;;;5021467;28;20502;-69
2023/08/12 12:03:06;;;;;;;5.50;2.85;;;;;;;;;;5023910;28;20143;-64
2023/08/12 12:05:55;;;;;;;3.35;2.92;;;;;;;;;;5027485;28;20494;-68
2023/08/12 12:08:40;;;;;;;5.20;2.55;;;;;;;;;;5027377;28;20472;-67
2023/08/12 12:11:26;;;;;;;4.20;2.78;;;;;;;;;;5032852;28;20040;-66
2023/08/12 12:14:11;;;;;;;6.78;3.53;;;;;;;;;;5022210;28;20025;-71
2023/08/12 12:16:56;;;;;;;9.05;3.47;;;;;;;;;;5027265;28;20032;-69
2023/08/12 12:19:42;;;;;;;7.05;4.07;;;;;;;;;;5025898;28;20041;-69
2023/08/12 12:22:28;;;;;;;6.18;3.95;;;;;;;;;;5019033;28;20041;-72
2023/08/12 12:25:15;;;;;;;6.80;4.10;;;;;;;;;;5026647;28;20029;-72
2023/08/12 12:28:00;;;;;;;4.30;3.38;;;;;;;;;;5014338;28;20120;-71
2023/08/12 12:30:45;;;;;;;6.47;3.70;;;;;;;;;;5024953;28;20468;-71
2023/08/12 12:33:30;;;;;;;9.93;4.78;;;;;;;;;;5028779;28;20381;-71
2023/08/12 12:36:15;;;;;;;8.00;4.07;;;;;;;;;;5025816;28;20033;-70
2023/08/12 12:39:01;;;;;;;7.00;4.18;;;;;;;;;;5025147;28;20538;-76
2023/08/12 12:41:47;;;;;;;6.40;3.70;;;;;;;;;;5026173;28;20060;-68
2023/08/12 12:44:32;;;;;;;12.77;4.10;;;;;;;;;;5026766;28;20041;-70
2023/08/12 12:47:18;;;;;;;9.18;4.50;;;;;;;;;;5022121;28;20618;-67
2023/08/12 12:50:03;;;;;;;10.55;4.78;;;;;;;;;;5021670;28;20096;-66
2023/08/12 12:52:48;;;;;;;6.97;4.72;;;;;;;;;;5029280;28;20037;-67
2023/08/12 12:55:33;;;;;;;6.28;4.13;;;;;;;;;;5014165;28;20057;-67
2023/08/12 12:58:19;;;;;;;7.13;4.43;;;;;;;;;;5026557;28;20040;-67
2023/08/12 13:01:04;;;;;;;6.40;4.55;;;;;;;;;;5027347;28;20122;-65
2023/08/12 13:03:49;;;;;;;7.70;4.32;;;;;;;;;;5024062;28;20017;-66
2023/08/12 13:06:35;;;;;;;8.20;4.55;;;;;;;;;;5026413;28;20029;-64
2023/08/12 13:09:20;;;;;;;7.88;4.55;;;;;;;;;;5027289;28;20029;-67
2023/08/12 13:12:05;;;;;;;8.65;5.28;;;;;;;;;;5027557;28;20025;-69
2023/08/12 13:14:51;;;;;;;7.20;4.65;;;;;;;;;;5029055;28;20068;-67
2023/08/12 13:17:36;;;;;;;9.23;4.78;;;;;;;;;;5030048;28;20041;-66
2023/08/12 13:20:21;;;;;;;7.22;4.63;;;;;;;;;;5026863;28;20079;-69
2023/08/12 13:23:06;;;;;;;6.70;4.47;;;;;;;;;;5027541;28;20024;-68
2023/08/12 13:25:51;;;;;;;7.00;4.35;;;;;;;;;;5025068;28;20470;-71
2023/08/12 13:28:37;;;;;;;9.90;6.22;;;;;;;;;;5023187;28;20061;-70
2023/08/12 13:31:22;;;;;;;6.65;3.92;;;;;;;;;;5028125;28;20472;-70
2023/08/12 13:34:07;;;;;;;8.77;5.50;;;;;;;;;;5038458;28;20026;-68
2023/08/12 13:36:53;;;;;;;8.38;5.03;;;;;;;;;;5011102;28;20030;-71
2023/08/12 13:39:38;;;;;;;18.73;9.82;;;;;;;;;;5024660;28;20171;-67
2023/08/12 13:42:23;;;;;;;15.23;7.70;;;;;;;;;;5030025;28;20033;-68
2023/08/12 13:45:11;;;;;;;8.98;5.32;;;;;;;;;;5025151;28;20499;-67
2023/08/12 13:47:57;;;;;;;8.77;5.28;;;;;;;;;;5027865;28;20140;-66
2023/08/12 13:50:42;;;;;;;8.40;5.45;;;;;;;;;;5027042;28;20059;-69
2023/08/12 13:53:27;;;;;;;8.63;5.22;;;;;;;;;;5023514;28;20497;-68
2023/08/12 13:56:13;;;;;;;7.10;4.88;;;;;;;;;;5018140;28;20033;-69
2023/08/12 13:58:58;;;;;;;9.80;5.75;;;;;;;;;;5026247;28;20052;-67
2023/08/12 14:01:43;;;;;;;11.93;5.43;;;;;;;;;;5026036;28;20068;-67
2023/08/12 14:04:28;;;;;;;7.03;4.68;;;;;;;;;;5026763;28;20038;-67
2023/08/12 14:07:13;;;;;;;8.48;4.50;;;;;;;;;;5019499;28;20025;-68
2023/08/12 14:09:59;;;;;;;13.55;4.78;;;;;;;;;;5013948;28;20029;-67
2023/08/12 14:12:45;;;;;;;8.48;4.47;;;;;;;;;;5025568;28;20604;-68
2023/08/12 14:15:30;;;;;;;8.02;4.07;;;;;;;;;;5023033;28;20030;-67
2023/08/12 14:18:15;;;;;;;8.38;4.35;;;;;;;;;;5028077;28;20539;-67
2023/08/12 14:21:00;;;;;;;5.97;4.18;;;;;;;;;;5027532;28;20045;-65
2023/08/12 14:23:45;;;;;;;10.77;5.35;;;;;;;;;;5032199;28;20084;-69
2023/08/12 14:26:31;;;;;;;8.75;4.07;;;;;;;;;;5028937;28;20029;-67
2023/08/12 14:29:16;;;;;;;7.40;4.65;;;;;;;;;;5020775;28;20104;-67
2023/08/12 14:32:01;;;;;;;6.85;3.90;;;;;;;;;;5027419;28;20108;-67
2023/08/12 14:34:46;;;;;;;5.53;3.20;;;;;;;;;;5029197;28;20599;-67
2023/08/12 14:37:31;;;;;;;5.38;3.53;;;;;;;;;;5023747;28;20072;-70
2023/08/12 14:40:17;;;;;;;6.93;4.55;;;;;;;;;;5030255;28;20504;-69
2023/08/12 14:43:02;;;;;;;6.57;4.30;;;;;;;;;;5027720;28;20037;-67
2023/08/12 14:45:47;;;;;;;7.80;4.10;;;;;;;;;;5022326;28;21995;-67
2023/08/12 14:48:33;;;;;;;6.88;4.43;;;;;;;;;;5020556;28;20428;-65
2023/08/12 14:51:18;;;;;;;8.43;3.65;;;;;;;;;;5018440;28;20626;-68
2023/08/12 14:54:03;;;;;;;6.70;3.42;;;;;;;;;;5022797;28;20392;-67
2023/08/12 14:56:48;;;;;;;6.32;3.58;;;;;;;;;;5026622;28;20041;-65
2023/08/12 14:59:34;;;;;;;6.93;3.00;;;;;;;;;;5029657;28;20037;-76
2023/08/12 15:02:25;;;;;;;6.35;3.10;;;;;;;;;;5026465;28;20136;-80
2023/08/12 15:05:10;;;;;;;6.75;3.78;;;;;;;;;;5028921;28;20033;-73
2023/08/12 15:07:55;;;;;;;14.88;6.57;;;;;;;;;;5027260;28;20029;-72
2023/08/12 15:10:40;;;;;;;7.85;3.83;;;;;;;;;;5028334;28;20464;-71
2023/08/12 15:13:26;;;;;;;3.30;2.30;;;;;;;;;;5031703;28;20129;-72
2023/08/12 15:16:11;;;;;;;6.43;2.80;;;;;;;;;;5028244;28;20044;-73
2023/08/12 15:18:56;;;;;;;4.75;2.20;;;;;;;;;;5028757;28;20591;-72
2023/08/12 15:21:41;;;;;;;7.35;3.38;;;;;;;;;;5020106;28;20092;-74
2023/08/12 15:24:27;;;;;;;5.55;3.38;;;;;;;;;;5030143;28;20137;-74
2023/08/12 15:27:12;;;;;;;4.60;2.60;;;;;;;;;;5028394;28;20036;-82
2023/08/12 15:30:00;;;;;;;5.40;2.58;;;;;;;;;;5016138;28;20030;-80
2023/08/12 15:32:46;;;;;;;4.88;2.60;;;;;;;;;;5034446;28;20404;-80
2023/08/12 15:35:31;;;;;;;5.82;2.30;;;;;;;;;;5032149;28;20021;-83
2023/08/12 15:38:16;;;;;;;3.28;2.40;;;;;;;;;;5011302;28;20026;-83
2023/08/12 15:41:11;;;;;;;4.20;2.45;;;;;;;;;;5025961;28;20037;-82
2023/08/12 15:43:56;;;;;;;4.90;2.38;;;;;;;;;;5037615;28;20036;-74
2023/08/12 15:46:42;;;;;;;6.18;3.05;;;;;;;;;;5021394;28;20083;-80
2023/08/12 15:49:31;;;;;;;9.23;3.42;;;;;;;;;;5027415;28;20014;-80
2023/08/12 15:52:16;;;;;;;5.90;3.35;;;;;;;;;;5020630;28;20051;-80
2023/08/12 15:55:02;;;;;;;4.55;2.85;;;;;;;;;;5029023;28;20041;-80
2023/08/12 15:57:47;;;;;;;5.18;2.70;;;;;;;;;;5026612;28;20034;-82
2023/08/12 16:00:32;;;;;;;5.25;2.40;;;;;;;;;;5028074;28;20103;-78
2023/08/12 16:03:18;;;;;;;6.05;2.78;;;;;;;;;;5016484;28;20025;-77
2023/08/12 16:06:04;;;;;;;4.10;2.70;;;;;;;;;;5028704;28;20077;-77
2023/08/12 16:08:50;;;;;;;4.20;2.70;;;;;;;;;;5026040;28;20041;-78
2023/08/12 16:11:35;;;;;;;6.80;3.72;;;;;;;;;;5025146;28;20033;-78
2023/08/12 16:14:20;;;;;;;5.28;3.20;;;;;;;;;;5025733;28;20040;-77
2023/08/12 16:17:08;;;;;;;6.43;3.50;;;;;;;;;;5030842;28;20419;-78
2023/08/12 16:19:53;;;;;;;5.40;3.33;;;;;;;;;;5026528;28;20452;-75
2023/08/12 16:22:38;;;;;;;7.35;3.67;;;;;;;;;;5036806;28;20044;-74
2023/08/12 16:25:24;;;;;;;6.18;3.10;;;;;;;;;;5034155;28;20047;-74
2023/08/12 16:28:09;;;;;;;11.10;4.05;;;;;;;;;;5024778;28;20029;-74
2023/08/12 16:30:54;;;;;;;12.73;4.45;;;;;;;;;;5027590;28;20033;-75